Terminal Aerodrome Forecast
Issued by NWS

Home | Current Version | Previous Version | Text Only | Print | Product List | Glossary On
Versions: 1 2 3 4 5 6 7 8 9 10 11 12 13 14 15
000
FTUS41 KCAR 280536
TAFFVE
TAF
KFVE 280536Z 2806/2906 13006KT 5SM -SN BR OVC025
      TEMPO 2806/2807 3SM -SN BR OVC020
     FM280700 15008KT 1SM -SN BR OVC008
     FM281200 18008KT 3SM -SN BR OVC006
     FM281500 24010KT P6SM VCSH OVC015
     FM281800 27012G20KT P6SM OVC025
     FM290000 30010G18KT P6SM BKN035=

USA.gov is the U.S. government's official web portal to all federal, state and local government web resources and services.